createdAt,value
2023-02-23T00:00:07.958Z,960.00
2023-02-23T00:01:07.993Z,966.00
2023-02-23T00:02:08.042Z,950.00
2023-02-23T00:03:08.270Z,957.00
2023-02-23T00:04:08.132Z,942.00
2023-02-23T00:05:08.156Z,935.00
2023-02-23T00:06:08.214Z,946.00
2023-02-23T00:07:08.241Z,960.00
2023-02-23T00:08:08.583Z,950.00
2023-02-23T00:09:08.379Z,950.00
2023-02-23T00:10:08.381Z,937.00
2023-02-23T00:11:08.407Z,943.00
2023-02-23T00:12:08.604Z,938.00
2023-02-23T00:13:08.507Z,932.00
2023-02-23T00:14:08.542Z,934.00
2023-02-23T00:15:08.605Z,941.00
2023-02-23T00:16:08.671Z,937.00
2023-02-23T00:17:08.673Z,934.00
2023-02-23T00:18:08.738Z,936.00
2023-02-23T00:19:07.930Z,927.00
2023-02-23T00:20:08.811Z,929.00
2023-02-23T00:21:08.844Z,931.00
2023-02-23T00:22:08.889Z,926.00
2023-02-23T00:23:08.947Z,926.00
2023-02-23T00:24:08.979Z,919.00
2023-02-23T00:25:09.027Z,921.00
2023-02-23T00:26:09.095Z,924.00
2023-02-23T00:27:08.130Z,915.00
2023-02-23T00:28:09.217Z,917.00
2023-02-23T00:29:09.227Z,906.00
2023-02-23T00:30:09.264Z,932.00
2023-02-23T00:31:08.317Z,910.00
2023-02-23T00:32:08.497Z,914.00
2023-02-23T00:33:09.432Z,913.00
2023-02-23T00:34:09.439Z,905.00
2023-02-23T00:35:09.490Z,908.00
2023-02-23T00:36:09.554Z,912.00
2023-02-23T00:37:08.586Z,913.00
2023-02-23T00:38:08.630Z,916.00
2023-02-23T00:39:08.674Z,917.00
2023-02-23T00:40:09.716Z,913.00
2023-02-23T00:41:09.755Z,914.00
2023-02-23T00:42:09.813Z,906.00
2023-02-23T00:43:09.856Z,902.00
2023-02-23T00:44:08.945Z,905.00
2023-02-23T00:45:09.955Z,908.00
2023-02-23T00:46:10.036Z,899.00
2023-02-23T00:47:10.057Z,908.00
2023-02-23T00:48:10.109Z,903.00
2023-02-23T00:49:09.155Z,900.00
2023-02-23T00:50:10.198Z,908.00
2023-02-23T00:51:10.253Z,884.00
2023-02-23T00:52:09.297Z,895.00
2023-02-23T00:53:11.598Z,895.00
2023-02-23T00:54:10.389Z,887.00
2023-02-23T00:55:10.435Z,901.00
2023-02-23T00:56:10.490Z,885.00
2023-02-23T00:57:10.529Z,884.00
2023-02-23T00:58:10.610Z,879.00
2023-02-23T00:59:10.689Z,886.00
2023-02-23T01:00:10.715Z,888.00
2023-02-23T01:01:10.781Z,892.00
2023-02-23T01:02:09.835Z,881.00
2023-02-23T01:03:10.854Z,886.00
2023-02-23T01:04:10.893Z,881.00
2023-02-23T01:05:10.952Z,892.00
2023-02-23T01:06:11.003Z,890.00
2023-02-23T01:07:11.054Z,886.00
2023-02-23T01:08:11.101Z,875.00
2023-02-23T01:09:11.168Z,884.00
2023-02-23T01:10:11.307Z,876.00
2023-02-23T01:11:11.271Z,891.00
2023-02-23T01:12:11.319Z,876.00
2023-02-23T01:13:11.390Z,873.00
2023-02-23T01:14:11.439Z,876.00
2023-02-23T01:15:10.474Z,879.00
2023-02-23T01:16:11.605Z,865.00
2023-02-23T01:17:10.585Z,869.00
2023-02-23T01:18:11.663Z,872.00
2023-02-23T01:19:11.725Z,858.00
2023-02-23T01:20:11.768Z,872.00
2023-02-23T01:21:11.812Z,857.00
2023-02-23T01:22:11.863Z,868.00
2023-02-23T01:23:11.929Z,853.00
2023-02-23T01:24:12.051Z,865.00
2023-02-23T01:25:12.028Z,851.00
2023-02-23T01:26:12.093Z,858.00
2023-02-23T01:27:11.131Z,853.00
2023-02-23T01:28:11.220Z,863.00
2023-02-23T01:29:11.250Z,858.00
2023-02-23T01:30:12.299Z,860.00
2023-02-23T01:31:12.574Z,857.00
2023-02-23T01:32:12.660Z,842.00
2023-02-23T01:33:12.467Z,858.00
2023-02-23T01:34:12.517Z,859.00
2023-02-23T01:35:12.592Z,851.00
2023-02-23T01:36:12.633Z,850.00
2023-02-23T01:37:12.689Z,846.00
2023-02-23T01:38:12.753Z,842.00
2023-02-23T01:39:12.815Z,853.00
2023-02-23T01:40:12.849Z,850.00
2023-02-23T01:41:12.915Z,856.00
2023-02-23T01:42:12.959Z,839.00
2023-02-23T01:43:13.026Z,827.00
2023-02-23T01:44:13.090Z,841.00
2023-02-23T01:45:13.151Z,848.00
2023-02-23T01:46:12.235Z,841.00
2023-02-23T01:47:13.253Z,832.00
2023-02-23T01:48:13.380Z,833.00
2023-02-23T01:49:13.375Z,836.00
2023-02-23T01:50:13.435Z,826.00
2023-02-23T01:51:13.484Z,834.00
2023-02-23T01:52:13.558Z,829.00
2023-02-23T01:53:13.610Z,825.00
2023-02-23T01:54:12.671Z,823.00
2023-02-23T01:55:13.733Z,829.00
2023-02-23T01:56:13.782Z,815.00
2023-02-23T01:57:12.838Z,815.00
2023-02-23T01:58:13.910Z,814.00
2023-02-23T01:59:13.978Z,821.00
2023-02-23T02:00:14.026Z,827.00
2023-02-23T02:01:14.193Z,805.00
2023-02-23T02:02:14.142Z,822.00
2023-02-23T02:03:14.221Z,827.00
2023-02-23T02:04:14.282Z,809.00
2023-02-23T02:05:13.408Z,815.00
2023-02-23T02:06:14.379Z,807.00
2023-02-23T02:07:13.440Z,816.00
2023-02-23T02:08:14.506Z,811.00
2023-02-23T02:09:14.562Z,802.00
2023-02-23T02:10:13.660Z,810.00
2023-02-23T02:11:14.678Z,809.00
2023-02-23T02:12:14.740Z,795.00
2023-02-23T02:13:14.818Z,809.00
2023-02-23T02:14:14.873Z,800.00
2023-02-23T02:15:13.917Z,809.00
2023-02-23T02:16:15.089Z,816.00
2023-02-23T02:17:15.043Z,807.00
2023-02-23T02:18:15.090Z,794.00
2023-02-23T02:19:15.154Z,802.00
2023-02-23T02:20:15.237Z,809.00
2023-02-23T02:21:15.278Z,794.00
2023-02-23T02:22:14.335Z,793.00
2023-02-23T02:23:15.362Z,791.00
2023-02-23T02:24:15.421Z,788.00
2023-02-23T02:25:15.559Z,795.00
2023-02-23T02:26:15.514Z,790.00
2023-02-23T02:27:15.550Z,803.00
2023-02-23T02:28:15.598Z,797.00
2023-02-23T02:29:14.645Z,785.00
2023-02-23T02:30:14.680Z,790.00
2023-02-23T02:31:15.798Z,793.00
2023-02-23T02:32:14.825Z,787.00
2023-02-23T02:33:15.807Z,802.00
2023-02-23T02:34:15.828Z,789.00
2023-02-23T02:35:14.854Z,792.00
2023-02-23T02:36:15.975Z,805.00
2023-02-23T02:37:15.935Z,803.00
2023-02-23T02:38:15.958Z,790.00
2023-02-23T02:39:16.018Z,800.00
2023-02-23T02:40:16.182Z,797.00
2023-02-23T02:41:15.046Z,802.00
2023-02-23T02:42:16.067Z,794.00
2023-02-23T02:43:16.082Z,805.00
2023-02-23T02:44:16.167Z,803.00
2023-02-23T02:45:15.137Z,797.00
2023-02-23T02:46:16.233Z,807.00
2023-02-23T02:47:16.175Z,795.00
2023-02-23T02:48:16.200Z,809.00
2023-02-23T02:49:16.217Z,808.00
2023-02-23T02:50:16.228Z,797.00
2023-02-23T02:51:16.477Z,814.00
2023-02-23T02:52:15.280Z,804.00
2023-02-23T02:53:15.271Z,807.00
2023-02-23T02:54:16.272Z,803.00
2023-02-23T02:55:15.268Z,804.00
2023-02-23T02:56:16.284Z,812.00
2023-02-23T02:57:15.397Z,808.00
2023-02-23T02:58:16.304Z,794.00
2023-02-23T02:59:16.305Z,790.00
2023-02-23T03:00:16.316Z,798.00
2023-02-23T03:01:16.865Z,808.00
2023-02-23T03:02:16.342Z,786.00
2023-02-23T03:03:15.309Z,802.00
2023-02-23T03:04:16.325Z,805.00
2023-02-23T03:05:16.381Z,798.00
2023-02-23T03:06:16.304Z,808.00
2023-02-23T03:07:16.306Z,801.00
2023-02-23T03:08:15.339Z,811.00
2023-02-23T03:09:15.306Z,797.00
2023-02-23T03:10:16.330Z,797.00
2023-02-23T03:11:16.578Z,800.00
2023-02-23T03:12:16.340Z,804.00
2023-02-23T03:13:16.309Z,802.00
2023-02-23T03:14:15.302Z,804.00
2023-02-23T03:15:15.395Z,794.00
2023-02-23T03:16:16.353Z,801.00
2023-02-23T03:17:16.336Z,799.00
2023-02-23T03:18:16.319Z,795.00
2023-02-23T03:19:16.319Z,805.00
2023-02-23T03:20:15.319Z,798.00
2023-02-23T03:21:16.480Z,790.00
2023-02-23T03:22:16.299Z,793.00
2023-02-23T03:23:16.295Z,773.00
2023-02-23T03:24:16.333Z,780.00
2023-02-23T03:25:16.303Z,795.00
2023-02-23T03:26:16.299Z,784.00
2023-02-23T03:27:15.294Z,785.00
2023-02-23T03:28:16.291Z,791.00
2023-02-23T03:29:16.290Z,791.00
2023-02-23T03:30:16.288Z,781.00
2023-02-23T03:31:16.529Z,789.00
2023-02-23T03:32:16.449Z,775.00
2023-02-23T03:33:15.292Z,773.00
2023-02-23T03:34:16.298Z,786.00
2023-02-23T03:35:16.285Z,777.00
2023-02-23T03:36:16.282Z,771.00
2023-02-23T03:37:16.280Z,777.00
2023-02-23T03:38:16.288Z,780.00
2023-02-23T03:39:16.297Z,773.00
2023-02-23T03:40:15.322Z,781.00
2023-02-23T03:41:15.286Z,776.00
2023-02-23T03:42:16.285Z,776.00
2023-02-23T03:43:16.292Z,761.00
2023-02-23T03:44:16.294Z,760.00
2023-02-23T03:45:16.312Z,779.00
2023-02-23T03:46:16.310Z,760.00
2023-02-23T03:47:15.295Z,763.00
2023-02-23T03:48:16.283Z,762.00
2023-02-23T03:49:16.293Z,762.00
2023-02-23T03:50:16.325Z,761.00
2023-02-23T03:51:16.456Z,758.00
2023-02-23T03:52:16.283Z,762.00
2023-02-23T03:53:16.285Z,762.00
2023-02-23T03:54:16.293Z,749.00
2023-02-23T03:55:16.290Z,760.00
2023-02-23T03:56:16.329Z,756.00
2023-02-23T03:57:16.289Z,747.00
2023-02-23T03:58:16.286Z,754.00
2023-02-23T03:59:15.280Z,752.00
2023-02-23T04:00:16.284Z,747.00
2023-02-23T04:01:15.275Z,751.00
2023-02-23T04:02:16.323Z,744.00
2023-02-23T04:03:16.349Z,741.00
2023-02-23T04:04:15.268Z,741.00
2023-02-23T04:05:16.283Z,749.00
2023-02-23T04:06:15.268Z,738.00
2023-02-23T04:07:16.276Z,750.00
2023-02-23T04:08:16.261Z,751.00
2023-02-23T04:09:16.328Z,749.00
2023-02-23T04:10:15.265Z,743.00
2023-02-23T04:11:16.593Z,750.00
2023-02-23T04:12:15.304Z,735.00
2023-02-23T04:13:16.278Z,730.00
2023-02-23T04:14:16.258Z,741.00
2023-02-23T04:15:16.288Z,740.00
2023-02-23T04:16:16.312Z,729.00
2023-02-23T04:17:16.259Z,734.00
2023-02-23T04:18:16.266Z,741.00
2023-02-23T04:19:16.271Z,734.00
2023-02-23T04:20:16.294Z,732.00
2023-02-23T04:21:16.561Z,742.00
2023-02-23T04:22:15.319Z,729.00
2023-02-23T04:23:16.328Z,727.00
2023-02-23T04:24:16.324Z,727.00
2023-02-23T04:25:17.466Z,736.00
2023-02-23T04:26:16.392Z,721.00
2023-02-23T04:27:16.341Z,726.00
2023-02-23T04:28:15.353Z,725.00
2023-02-23T04:29:16.325Z,730.00
2023-02-23T04:30:16.328Z,716.00
2023-02-23T04:31:16.454Z,728.00
2023-02-23T04:32:16.478Z,718.00
2023-02-23T04:33:16.353Z,712.00
2023-02-23T04:34:16.344Z,733.00
2023-02-23T04:35:16.340Z,715.00
2023-02-23T04:36:16.333Z,716.00
2023-02-23T04:37:16.327Z,716.00
2023-02-23T04:38:16.350Z,712.00
2023-02-23T04:39:16.382Z,709.00
2023-02-23T04:40:15.375Z,711.00
2023-02-23T04:41:16.509Z,724.00
2023-02-23T04:42:15.375Z,716.00
2023-02-23T04:43:16.389Z,720.00
2023-02-23T04:44:16.585Z,715.00
2023-02-23T04:45:16.461Z,711.00
2023-02-23T04:46:16.485Z,708.00
2023-02-23T04:47:16.469Z,720.00
2023-02-23T04:48:16.507Z,716.00
2023-02-23T04:49:16.491Z,706.00
2023-02-23T04:50:16.499Z,714.00
2023-02-23T04:51:17.001Z,703.00
2023-02-23T04:52:15.550Z,710.00
2023-02-23T04:53:16.556Z,695.00
2023-02-23T04:54:16.568Z,701.00
2023-02-23T04:55:16.374Z,704.00
2023-02-23T04:56:16.639Z,704.00
2023-02-23T04:57:16.696Z,700.00
2023-02-23T04:58:16.704Z,695.00
2023-02-23T04:59:16.758Z,700.00
2023-02-23T05:00:16.882Z,703.00
2023-02-23T05:01:17.324Z,700.00
2023-02-23T05:02:16.887Z,693.00
2023-02-23T05:03:16.913Z,689.00
2023-02-23T05:04:15.908Z,694.00
2023-02-23T05:05:16.954Z,686.00
2023-02-23T05:06:16.995Z,697.00
2023-02-23T05:07:17.011Z,699.00
2023-02-23T05:08:16.043Z,687.00
2023-02-23T05:09:17.070Z,689.00
2023-02-23T05:10:17.131Z,686.00
2023-02-23T05:11:16.214Z,687.00
2023-02-23T05:12:17.190Z,681.00
2023-02-23T05:13:17.214Z,683.00
2023-02-23T05:14:17.235Z,678.00
2023-02-23T05:15:17.245Z,679.00
2023-02-23T05:16:17.420Z,680.00
2023-02-23T05:17:17.381Z,673.00
2023-02-23T05:18:17.361Z,675.00
2023-02-23T05:19:17.403Z,682.00
2023-02-23T05:20:17.433Z,687.00
2023-02-23T05:21:17.784Z,676.00
2023-02-23T05:22:17.515Z,675.00
2023-02-23T05:23:16.549Z,666.00
2023-02-23T05:24:17.606Z,673.00
2023-02-23T05:25:17.635Z,677.00
2023-02-23T05:26:16.675Z,677.00
2023-02-23T05:27:16.701Z,672.00
2023-02-23T05:28:17.728Z,668.00
2023-02-23T05:29:16.780Z,674.00
2023-02-23T05:30:17.777Z,670.00
2023-02-23T05:31:17.051Z,671.00
2023-02-23T05:32:16.949Z,664.00
2023-02-23T05:33:18.366Z,665.00
2023-02-23T05:34:17.837Z,663.00
2023-02-23T05:35:17.867Z,664.00
2023-02-23T05:36:17.896Z,662.00
2023-02-23T05:37:16.865Z,663.00
2023-02-23T05:38:17.874Z,666.00
2023-02-23T05:39:17.863Z,662.00
2023-02-23T05:40:16.887Z,660.00
2023-02-23T05:41:17.221Z,656.00
2023-02-23T05:42:17.938Z,660.00
2023-02-23T05:43:17.971Z,661.00
2023-02-23T05:44:18.022Z,656.00
2023-02-23T05:45:18.059Z,655.00
2023-02-23T05:46:18.146Z,655.00
2023-02-23T05:47:17.130Z,661.00
2023-02-23T05:48:17.181Z,661.00
2023-02-23T05:49:17.208Z,659.00
2023-02-23T05:50:18.222Z,657.00
2023-02-23T05:51:18.617Z,660.00
2023-02-23T05:52:18.296Z,659.00
2023-02-23T05:53:18.327Z,652.00
2023-02-23T05:54:18.381Z,655.00
2023-02-23T05:55:18.379Z,655.00
2023-02-23T05:56:18.412Z,658.00
2023-02-23T05:57:18.428Z,652.00
2023-02-23T05:58:18.538Z,655.00
2023-02-23T05:59:17.503Z,657.00
2023-02-23T06:00:18.534Z,655.00
2023-02-23T06:01:18.950Z,655.00
2023-02-23T06:02:18.627Z,653.00
2023-02-23T06:03:18.841Z,656.00
2023-02-23T06:03:27.472Z,500.00
2023-02-23T06:04:18.617Z,653.00
2023-02-23T06:04:28.428Z,500.00
2023-02-23T06:05:18.681Z,658.00
2023-02-23T06:05:28.721Z,500.00
2023-02-23T06:06:18.710Z,658.00
2023-02-23T06:06:28.315Z,500.00
2023-02-23T06:07:18.737Z,653.00
2023-02-23T06:07:28.308Z,500.00
2023-02-23T06:08:18.772Z,657.00
2023-02-23T06:09:18.798Z,655.00
2023-02-23T06:09:28.301Z,400.00
2023-02-23T06:10:18.833Z,655.00
2023-02-23T06:11:19.219Z,655.00
2023-02-23T06:12:17.916Z,653.00
2023-02-23T06:13:18.921Z,657.00
2023-02-23T06:13:27.236Z,400.00
2023-02-23T06:14:18.947Z,653.00
2023-02-23T06:15:18.982Z,652.00
2023-02-23T06:15:29.089Z,400.00
2023-02-23T06:16:19.139Z,653.00
2023-02-23T06:17:19.075Z,650.00
2023-02-23T06:18:19.087Z,650.00
2023-02-23T06:18:27.178Z,400.00
2023-02-23T06:19:18.122Z,651.00
2023-02-23T06:20:18.123Z,652.00
2023-02-23T06:21:19.421Z,650.00
2023-02-23T06:22:19.173Z,653.00
2023-02-23T06:22:28.124Z,400.00
2023-02-23T06:23:19.194Z,652.00
2023-02-23T06:23:28.109Z,400.00
2023-02-23T06:24:18.191Z,650.00
2023-02-23T06:24:28.079Z,400.00
2023-02-23T06:25:18.231Z,650.00
2023-02-23T06:26:18.267Z,649.00
2023-02-23T06:27:19.293Z,651.00
2023-02-23T06:28:19.314Z,652.00
2023-02-23T06:29:19.338Z,652.00
2023-02-23T06:30:18.346Z,649.00
2023-02-23T06:31:19.718Z,653.00
2023-02-23T06:32:19.547Z,650.00
2023-02-23T06:33:18.370Z,652.00
2023-02-23T06:34:19.406Z,662.00
2023-02-23T06:35:19.413Z,654.00
2023-02-23T06:36:19.441Z,657.00
2023-02-23T06:37:19.474Z,658.00
2023-02-23T06:38:18.510Z,662.00
2023-02-23T06:39:18.561Z,664.00
2023-02-23T06:40:19.655Z,662.00
2023-02-23T06:41:19.957Z,661.00
2023-02-23T06:41:46.385Z,500.00
2023-02-23T06:42:19.907Z,664.00
2023-02-23T06:42:48.067Z,500.00
2023-02-23T06:43:21.609Z,669.00
2023-02-23T06:43:47.276Z,500.00
2023-02-23T06:44:19.746Z,670.00
2023-02-23T06:44:46.240Z,500.00
2023-02-23T06:45:19.749Z,670.00
2023-02-23T06:45:47.238Z,500.00
2023-02-23T06:46:19.828Z,674.00
2023-02-23T06:46:47.328Z,503.00
2023-02-23T06:47:19.781Z,679.00
2023-02-23T06:47:47.297Z,500.00
2023-02-23T06:48:19.731Z,665.00
2023-02-23T06:48:47.247Z,501.00
2023-02-23T06:49:18.704Z,622.00
2023-02-23T06:49:46.241Z,504.00
2023-02-23T06:50:18.705Z,620.00
2023-02-23T06:50:47.266Z,501.00
2023-02-23T06:51:18.946Z,618.00
2023-02-23T06:51:47.167Z,501.00
2023-02-23T06:52:19.708Z,628.00
2023-02-23T06:52:47.337Z,501.00
2023-02-23T06:53:19.681Z,615.00
2023-02-23T06:53:47.153Z,501.00
2023-02-23T06:54:19.714Z,615.00
2023-02-23T06:54:47.131Z,500.00
2023-02-23T06:55:18.696Z,630.00
2023-02-23T06:55:46.185Z,507.00
2023-02-23T06:56:19.652Z,642.00
2023-02-23T06:56:47.210Z,512.00
2023-02-23T06:57:18.652Z,636.00
2023-02-23T06:57:47.407Z,500.00
2023-02-23T06:58:19.659Z,630.00
2023-02-23T06:58:47.233Z,500.00
2023-02-23T06:59:19.671Z,632.00
2023-02-23T06:59:47.328Z,502.00
2023-02-23T07:00:18.646Z,633.00
2023-02-23T07:01:20.012Z,628.00
2023-02-23T07:02:19.905Z,634.00
2023-02-23T07:03:19.619Z,652.00
2023-02-23T07:04:18.652Z,650.00
2023-02-23T07:05:09.961Z,500.00
2023-02-23T07:05:18.594Z,648.00
2023-02-23T07:06:19.605Z,652.00
2023-02-23T07:07:18.610Z,657.00
2023-02-23T07:08:18.600Z,676.00
2023-02-23T07:09:19.560Z,683.00
2023-02-23T07:10:18.557Z,714.00
2023-02-23T07:11:19.938Z,724.00
2023-02-23T07:12:18.557Z,739.00
2023-02-23T07:13:19.547Z,751.00
2023-02-23T07:14:26.472Z,777.00
2023-02-23T07:15:19.562Z,778.00
2023-02-23T07:16:19.557Z,784.00
2023-02-23T07:17:19.541Z,791.00
2023-02-23T07:18:19.530Z,806.00
2023-02-23T07:19:19.509Z,850.00
2023-02-23T07:20:19.591Z,856.00
2023-02-23T07:21:18.824Z,867.00
2023-02-23T07:22:19.506Z,874.00
2023-02-23T07:23:19.500Z,894.00
2023-02-23T07:24:19.534Z,913.00
2023-02-23T07:25:19.475Z,907.00
2023-02-23T07:26:19.469Z,932.00
2023-02-23T07:27:19.495Z,950.00
2023-02-23T07:28:19.465Z,940.00
2023-02-23T07:29:19.460Z,1048.00
2023-02-23T07:30:19.460Z,1196.00
2023-02-23T07:31:19.849Z,1153.00
2023-02-23T07:32:18.550Z,1123.00
2023-02-23T07:33:18.421Z,1117.00
2023-02-23T07:34:19.419Z,1102.00
2023-02-23T07:35:19.396Z,1106.00
2023-02-23T07:36:19.423Z,1112.00
2023-02-23T07:37:19.392Z,1100.00
2023-02-23T07:38:19.413Z,1100.00
2023-02-23T07:39:18.397Z,1105.00
2023-02-23T07:40:19.380Z,1105.00
2023-02-23T07:41:19.976Z,500.00
2023-02-23T07:42:19.372Z,1098.00
2023-02-23T07:43:19.355Z,1100.00
2023-02-23T07:43:56.809Z,500.00
2023-02-23T07:44:18.355Z,1110.00
2023-02-23T07:45:19.356Z,1108.00
2023-02-23T07:46:18.452Z,1127.00
2023-02-23T07:46:29.919Z,500.00
2023-02-23T07:47:18.359Z,1138.00
2023-02-23T07:48:19.318Z,1144.00
2023-02-23T07:49:19.372Z,1159.00
2023-02-23T07:50:19.400Z,1177.00
2023-02-23T07:51:19.000Z,1187.00
2023-02-23T07:52:19.964Z,1197.00
2023-02-23T07:53:19.567Z,1204.00
2023-02-23T07:54:19.642Z,1209.00
2023-02-23T07:55:18.712Z,1240.00
2023-02-23T07:56:19.751Z,1187.00
2023-02-23T07:57:20.917Z,1209.00
2023-02-23T07:58:19.840Z,1213.00
2023-02-23T07:59:19.804Z,1207.00
2023-02-23T08:00:18.784Z,1196.00
2023-02-23T08:01:19.188Z,1191.00
2023-02-23T08:02:19.823Z,1201.00
2023-02-23T08:03:19.836Z,1199.00
2023-02-23T08:04:19.857Z,1201.00
2023-02-23T08:05:19.770Z,1190.00
2023-02-23T08:06:19.758Z,1188.00
2023-02-23T08:07:18.775Z,1195.00
2023-02-23T08:08:19.752Z,1184.00
2023-02-23T08:09:19.733Z,1203.00
2023-02-23T08:10:19.739Z,1192.00
2023-02-23T08:11:19.065Z,1199.00
2023-02-23T08:12:19.735Z,1234.00
2023-02-23T08:13:19.722Z,1220.00
2023-02-23T08:14:19.697Z,1225.00
2023-02-23T08:15:18.717Z,1225.00
2023-02-23T08:16:19.761Z,1233.00
2023-02-23T08:17:19.693Z,1224.00
2023-02-23T08:18:19.736Z,1258.00
2023-02-23T08:19:19.697Z,1257.00
2023-02-23T08:20:19.735Z,1282.00
2023-02-23T08:21:19.062Z,1276.00
2023-02-23T08:22:19.729Z,1313.00
2023-02-23T08:23:18.781Z,1329.00
2023-02-23T08:24:18.801Z,1322.00
2023-02-23T08:25:19.958Z,1314.00
2023-02-23T08:26:19.924Z,1308.00
2023-02-23T08:27:19.961Z,1309.00
2023-02-23T08:28:19.019Z,1316.00
2023-02-23T08:29:19.048Z,1318.00
2023-02-23T08:30:20.094Z,1318.00
2023-02-23T08:31:20.492Z,1310.00
2023-02-23T08:32:20.257Z,1309.00
2023-02-23T08:33:20.234Z,1304.00
2023-02-23T08:34:19.280Z,1308.00
2023-02-23T08:35:20.393Z,1319.00
2023-02-23T08:36:20.354Z,1308.00
2023-02-23T08:37:20.402Z,1320.00
2023-02-23T08:38:20.473Z,1410.00
2023-02-23T08:39:20.472Z,1380.00
2023-02-23T08:40:20.526Z,1388.00
2023-02-23T08:41:20.988Z,1374.00
2023-02-23T08:42:20.624Z,1394.00
2023-02-23T08:43:20.649Z,1381.00
2023-02-23T08:44:20.677Z,1373.00
2023-02-23T08:45:20.721Z,1381.00
2023-02-23T08:46:19.883Z,1390.00
2023-02-23T08:47:19.855Z,1414.00
2023-02-23T08:48:20.944Z,1405.00
2023-02-23T08:49:19.844Z,1416.00
2023-02-23T08:50:20.865Z,1438.00
2023-02-23T08:50:45.907Z,539.00
2023-02-23T08:51:59.640Z,525.00
2023-02-23T08:53:21.015Z,1434.00
2023-02-23T08:54:21.081Z,1448.00
2023-02-23T08:55:20.073Z,1467.00
2023-02-23T08:56:21.210Z,1475.00
2023-02-23T08:57:21.170Z,1483.00
2023-02-23T08:58:21.195Z,1497.00
2023-02-23T08:59:21.253Z,1502.00
2023-02-23T09:00:21.343Z,1526.00
2023-02-23T09:01:21.636Z,1529.00
2023-02-23T09:02:21.356Z,1533.00
2023-02-23T09:03:21.435Z,1544.00
2023-02-23T09:04:21.470Z,1548.00
2023-02-23T09:05:21.567Z,1556.00
2023-02-23T09:05:51.825Z,500.00
2023-02-23T09:06:21.543Z,1551.00
2023-02-23T09:07:20.594Z,1566.00
2023-02-23T09:08:02.020Z,500.00
2023-02-23T09:08:20.644Z,1575.00
2023-02-23T09:09:21.657Z,1570.00
2023-02-23T09:10:21.790Z,1582.00
2023-02-23T09:11:21.951Z,1586.00
2023-02-23T09:12:20.797Z,1594.00
2023-02-23T09:13:20.839Z,1597.00
2023-02-23T09:14:20.886Z,1597.00
2023-02-23T09:15:22.819Z,500.00
2023-02-23T09:16:20.974Z,500.00
2023-02-23T09:17:20.996Z,1634.00
2023-02-23T09:18:22.837Z,500.00
2023-02-23T09:19:22.076Z,500.00
2023-02-23T09:20:21.031Z,500.00
2023-02-23T09:21:21.519Z,1641.00
2023-02-23T09:22:22.211Z,1654.00
2023-02-23T09:22:41.006Z,500.00
2023-02-23T09:23:22.261Z,1654.00
2023-02-23T09:23:55.212Z,500.00
2023-02-23T09:24:22.291Z,1651.00
2023-02-23T09:25:22.309Z,1652.00
2023-02-23T09:26:22.557Z,1657.00
2023-02-23T09:27:22.412Z,1664.00
2023-02-23T09:27:43.295Z,500.00
2023-02-23T09:28:22.444Z,1660.00
2023-02-23T09:29:22.459Z,1665.00
2023-02-23T09:30:22.533Z,1670.00
2023-02-23T09:31:23.080Z,1671.00
2023-02-23T09:32:22.703Z,1674.00
2023-02-23T09:33:22.620Z,1678.00
2023-02-23T09:34:21.064Z,500.00
2023-02-23T09:35:22.677Z,1682.00
2023-02-23T09:36:22.705Z,1677.00
2023-02-23T09:37:22.745Z,1683.00
2023-02-23T09:38:22.788Z,1689.00
2023-02-23T09:39:32.386Z,1695.00
2023-02-23T09:40:22.814Z,1696.00
2023-02-23T09:41:08.398Z,500.00
2023-02-23T09:42:22.847Z,1595.00
2023-02-23T09:43:22.964Z,1810.00
2023-02-23T09:44:21.814Z,1406.00
2023-02-23T09:44:46.797Z,500.00
2023-02-23T09:45:48.020Z,500.00
2023-02-23T09:46:46.733Z,500.00
2023-02-23T09:47:47.783Z,500.00
2023-02-23T09:48:48.641Z,500.00
2023-02-23T09:50:22.810Z,739.00
2023-02-23T09:51:22.719Z,673.00
2023-02-23T09:52:11.123Z,500.00
2023-02-23T09:53:11.576Z,500.00
2023-02-23T09:54:22.703Z,627.00
2023-02-23T09:55:22.702Z,607.00
2023-02-23T09:56:22.694Z,612.00
2023-02-23T09:57:21.735Z,614.00
2023-02-23T09:57:51.640Z,500.00
2023-02-23T09:59:01.915Z,500.00
2023-02-23T10:00:22.862Z,720.00
2023-02-23T10:01:08.880Z,500.00
2023-02-23T10:02:13.528Z,500.00
2023-02-23T10:03:22.876Z,665.00
2023-02-23T10:04:22.968Z,668.00
2023-02-23T10:05:23.044Z,678.00
2023-02-23T10:06:23.066Z,694.00
2023-02-23T10:07:23.136Z,710.00
2023-02-23T10:08:23.145Z,719.00
2023-02-23T10:09:22.106Z,737.00
2023-02-23T10:10:23.151Z,751.00
2023-02-23T10:10:47.277Z,500.00
2023-02-23T10:11:48.401Z,500.00
2023-02-23T10:12:47.863Z,500.00
2023-02-23T10:13:47.918Z,500.00
2023-02-23T10:15:23.172Z,822.00
2023-02-23T10:16:23.206Z,830.00
2023-02-23T10:17:23.223Z,843.00
2023-02-23T10:18:24.617Z,869.00
2023-02-23T10:19:18.413Z,500.00
2023-02-23T10:20:23.199Z,838.00
2023-02-23T10:21:23.188Z,867.00
2023-02-23T10:21:36.979Z,500.00
2023-02-23T10:22:23.190Z,897.00
2023-02-23T10:23:23.245Z,790.00
2023-02-23T10:24:22.190Z,690.00
2023-02-23T10:25:23.170Z,650.00
2023-02-23T10:26:22.157Z,663.00
2023-02-23T10:27:23.152Z,741.00
2023-02-23T10:28:23.134Z,810.00
2023-02-23T10:29:23.185Z,720.00
2023-02-23T10:29:51.110Z,500.00
2023-02-23T10:30:52.520Z,500.00
2023-02-23T10:32:22.261Z,707.00
2023-02-23T10:33:19.847Z,500.00
2023-02-23T10:34:23.673Z,728.00
2023-02-23T10:35:23.095Z,741.00
2023-02-23T10:35:43.146Z,500.00
2023-02-23T10:36:22.072Z,760.00
2023-02-23T10:37:23.146Z,766.00
2023-02-23T10:37:57.865Z,500.00
2023-02-23T10:39:23.276Z,799.00
2023-02-23T10:40:19.262Z,500.00
2023-02-23T10:41:20.547Z,500.00
2023-02-23T10:42:23.436Z,833.00
2023-02-23T10:43:23.477Z,851.00
2023-02-23T10:44:23.500Z,869.00
2023-02-23T10:44:57.936Z,500.00
2023-02-23T10:45:58.220Z,500.00
2023-02-23T10:46:59.023Z,500.00
2023-02-23T10:47:59.396Z,500.00
2023-02-23T10:48:58.887Z,500.00
2023-02-23T10:49:57.866Z,504.00
2023-02-23T10:50:58.803Z,489.00
2023-02-23T10:51:58.742Z,503.00
2023-02-23T10:52:58.299Z,505.00
2023-02-23T10:54:22.851Z,771.00
2023-02-23T10:55:24.453Z,738.00
2023-02-23T11:00:56.762Z,500.00
2023-02-23T11:16:25.296Z,1005.00
2023-02-23T11:27:25.001Z,1152.00
2023-02-23T11:28:23.938Z,1166.00
2023-02-23T11:30:24.981Z,1189.00
2023-02-23T11:31:25.006Z,1193.00
2023-02-23T11:32:24.149Z,1203.00
2023-02-23T11:33:25.005Z,1224.00
2023-02-23T11:34:25.019Z,1227.00
2023-02-23T11:35:24.018Z,1246.00
2023-02-23T11:36:25.045Z,1242.00
2023-02-23T11:37:25.044Z,1247.00
2023-02-23T11:38:14.282Z,500.00
2023-02-23T11:38:25.065Z,1244.00
2023-02-23T11:39:25.110Z,1242.00
2023-02-23T11:40:25.120Z,1253.00
2023-02-23T11:41:25.143Z,1255.00
2023-02-23T11:42:25.148Z,1245.00
2023-02-23T11:43:25.178Z,1243.00
2023-02-23T11:44:25.516Z,1243.00
2023-02-23T11:45:25.268Z,1236.00
2023-02-23T11:46:25.346Z,1234.00
2023-02-23T11:47:25.399Z,1228.00
2023-02-23T11:48:25.520Z,1220.00
2023-02-23T11:49:25.532Z,1214.00
2023-02-23T11:50:25.434Z,1211.00
2023-02-23T11:51:25.486Z,1215.00
2023-02-23T11:53:25.567Z,1211.00
2023-02-23T11:54:25.641Z,1203.00
2023-02-23T11:55:25.706Z,1203.00
2023-02-23T11:56:25.837Z,1194.00
2023-02-23T11:58:25.857Z,1189.00
2023-02-23T11:59:25.920Z,1187.00
2023-02-23T12:01:26.029Z,1187.00
2023-02-23T12:02:26.107Z,1180.00
2023-02-23T12:03:25.161Z,1180.00
2023-02-23T12:04:25.247Z,1171.00
2023-02-23T12:05:26.293Z,1169.00
2023-02-23T12:06:26.421Z,1171.00
2023-02-23T12:07:26.411Z,1170.00
2023-02-23T12:08:26.466Z,1145.00
2023-02-23T12:09:25.535Z,1147.00
2023-02-23T12:10:26.628Z,1157.00
2023-02-23T12:11:26.627Z,1151.00
2023-02-23T12:12:26.739Z,1146.00
2023-02-23T12:13:26.725Z,1142.00
2023-02-23T12:14:26.794Z,1137.00